Latest Weather Observations for Loxton

IDS60801

Issued at 10:35 pm CST Sunday 20 April 2014 (issued every 30 minutes, with the page automatically refreshed every 10 minutes)

About weather observations | Map of weather stations | Latest weather observations for SA | Other Formats
Station Details ID: 024024 Name: LOXTON RESEARCH CENTRE Lat: -34.44 Lon: 140.60 Height: 30.1 m
Data from the previous 72 hours. | See also: Recent months at Loxton
Date/Time
CST
Temp
°C
App
Temp
°C
Dew
Point
Rel
Hum
%
Delta-T
°C
Wind Press
QNH
hPa
Press
MSL
hPa
Rain
since 9 am
mm
Dir
 
Spd
km/h
Gust
km/h
Spd
kts
Gust
kts
20/10:30pm 9.6 9.2 8.4 92 0.6 S 0 0 0 0 1019.1 1019.0 0.0
20/10:00pm 9.6 9.2 8.1 90 0.7 S 0 0 0 0 1019.1 - 0.0
20/09:30pm 9.9 9.3 7.6 85 1.1 CALM 0 0 0 0 1019.0 1018.9 0.0
20/09:00pm 10.8 10.5 8.8 87 1.0 CALM 0 0 0 0 1019.2 1019.1 0.0
20/08:30pm 10.7 10.4 8.5 86 1.1 CALM 0 0 0 0 1018.8 1018.7 0.0
20/08:00pm 11.4 11.3 9.4 87 1.0 CALM 0 0 0 0 1018.5 - 0.0
20/07:30pm 12.3 12.2 9.3 82 1.5 CALM 0 0 0 0 1018.6 1018.5 0.0
20/07:00pm 12.7 12.7 9.8 82 1.5 CALM 0 0 0 0 1018.5 - 0.0
20/06:30pm 13.9 14.0 10.2 78 1.9 CALM 0 0 0 0 1018.3 1018.2 0.0
20/06:00pm 15.4 15.6 10.7 73 2.5 CALM 0 0 0 0 1018.0 1017.9 0.0
20/05:30pm 17.4 17.2 10.5 64 3.7 SSW 2 6 1 3 1017.8 1017.7 0.0
20/05:00pm 20.6 18.5 6.0 38 7.3 S 6 9 3 5 1017.6 - 0.0
20/04:30pm 21.4 18.9 4.9 34 8.1 SSE 7 11 4 6 1017.5 1017.4 0.0
20/04:00pm 22.1 20.1 4.3 31 8.7 SW 4 9 2 5 1017.2 - 0.0
20/03:30pm 21.6 19.0 4.0 31 8.5 S 7 13 4 7 1017.2 1017.1 0.0
20/03:00pm 21.5 17.6 3.5 30 8.6 SSE 13 19 7 10 1017.2 1017.1 0.0
20/02:30pm 21.7 18.3 3.9 31 8.6 SSW 11 19 6 10 1017.2 1017.1 0.0
20/02:00pm 20.9 17.4 3.5 31 8.3 S 11 19 6 10 1017.3 - 0.0
20/01:30pm 20.7 17.1 3.1 31 8.3 S 11 17 6 9 1017.4 1017.3 0.0
20/01:00pm 20.6 16.7 3.3 32 8.2 WSW 13 20 7 11 1017.7 - 0.0
20/12:30pm 20.5 17.4 3.4 32 8.1 W 9 20 5 11 1018.1 1018.0 0.0
20/12:00pm 19.8 17.0 3.2 33 7.8 W 7 13 4 7 1018.5 1018.4 0.0
20/11:30am 19.2 16.5 3.7 36 7.3 NW 7 11 4 6 1019.0 1018.9 0.0
20/11:00am 18.5 15.4 3.8 37 6.9 SSW 9 19 5 10 1019.2 - 0.0
20/10:30am 18.6 16.5 4.0 38 6.9 NNW 4 11 2 6 1019.4 1019.3 0.0
20/10:00am 18.2 16.3 4.8 41 6.4 NNE 4 9 2 5 1019.5 - 0.0
20/09:30am 17.2 16.1 5.1 44 5.8 CALM 0 0 0 0 1019.7 1019.6 0.0
20/09:00am 16.4 15.3 5.0 47 5.4 CALM 0 7 0 4 1019.7 1019.6 0.0
20/08:30am 15.3 14.5 6.4 55 4.3 CALM 0 0 0 0 1019.6 1019.5 0.0
20/08:00am 12.9 12.4 7.8 71 2.5 CALM 0 0 0 0 1019.4 - 0.0
20/07:30am 11.4 11.2 9.2 86 1.1 CALM 0 0 0 0 1019.2 1019.1 0.0
20/07:00am 11.0 10.8 9.0 87 1.0 CALM 0 0 0 0 1018.9 - 0.0
20/06:30am 11.1 11.0 9.3 89 0.9 CALM 0 0 0 0 1018.6 1018.5 0.0
20/06:00am 11.5 11.1 8.2 80 1.6 S 0 0 0 0 1018.5 1018.4 0.0
20/05:30am 11.8 10.4 7.2 73 2.2 SSE 4 6 2 3 1018.4 1018.3 0.0
20/05:00am 11.8 9.8 7.2 73 2.2 ENE 7 11 4 6 1018.2 - 0.0
20/04:30am 11.6 11.1 7.9 78 1.8 CALM 0 0 0 0 1017.9 1017.8 0.0
20/04:00am 11.3 11.0 8.7 84 1.3 CALM 0 0 0 0 1017.6 - 0.0
20/03:30am 11.5 11.2 8.5 82 1.5 CALM 0 0 0 0 1017.7 1017.6 0.0
20/03:00am 11.5 10.9 7.3 75 2.0 CALM 0 0 0 0 1017.9 1017.8 0.0
20/02:30am 11.7 10.6 6.9 72 2.3 SW 2 7 1 4 1018.0 1017.9 0.0
20/02:00am 11.8 10.1 7.4 74 2.1 S 6 7 3 4 1018.2 - 0.0
20/01:30am 11.7 9.9 7.3 74 2.1 W 6 11 3 6 1018.2 1018.1 0.0
20/01:00am 11.4 10.8 7.2 75 2.0 CALM 0 0 0 0 1018.2 - 0.0
20/12:30am 10.7 10.1 7.4 80 1.6 CALM 0 0 0 0 1018.2 1018.1 0.0
20/12:00am 10.1 9.4 6.9 80 1.5 NNE 0 0 0 0 1018.3 1018.2 0.0
 
Date/Time
CST
Temp
°C
App
Temp
°C
Dew
Point
Rel
Hum
%
Delta-T
°C
Wind Press
QNH
hPa
Press
MSL
hPa
Rain
since 9 am
mm
Dir
 
Spd
km/h
Gust
km/h
Spd
kts
Gust
kts
19/11:30pm 9.0 8.3 7.1 88 0.9 CALM 0 0 0 0 1018.3 1018.2 0.0
19/11:00pm 8.5 7.7 6.5 87 0.9 CALM 0 0 0 0 1018.4 - 0.0
19/10:30pm 10.0 9.3 6.8 80 1.5 CALM 0 0 0 0 1018.6 1018.5 0.0
19/10:00pm 9.2 8.6 7.3 88 0.9 CALM 0 0 0 0 1018.8 - 0.0
19/09:30pm 8.4 7.7 6.9 90 0.7 CALM 0 0 0 0 1019.0 1018.9 0.0
19/09:00pm 8.1 7.2 6.1 87 0.9 CALM 0 0 0 0 1019.1 1019.0 0.0
19/08:30pm 8.1 7.2 5.9 86 1.0 CALM 0 0 0 0 1019.1 1019.0 0.0
19/08:00pm 8.8 7.9 5.9 82 1.3 CALM 0 0 0 0 1019.0 - 0.0
19/07:30pm 9.2 8.5 7.1 87 1.0 CALM 0 0 0 0 1019.1 1019.0 0.0
19/07:00pm 9.6 9.1 7.7 88 0.9 CALM 0 0 0 0 1019.0 - 0.0
19/06:30pm 10.8 10.2 7.5 80 1.6 CALM 0 0 0 0 1019.0 1018.9 0.0
19/06:00pm 12.2 11.6 7.4 72 2.3 CALM 0 0 0 0 1018.9 1018.8 0.0
19/05:30pm 15.9 15.8 9.3 65 3.4 CALM 0 0 0 0 1018.8 1018.7 0.0
19/05:00pm 17.7 15.0 2.6 36 6.9 NW 6 9 3 5 1018.8 - 0.0
19/04:30pm 18.0 15.0 1.8 33 7.3 SW 7 11 4 6 1018.8 1018.7 0.0
19/04:00pm 18.2 15.4 1.8 33 7.4 WSW 6 9 3 5 1019.0 - 0.0
19/03:30pm 18.8 15.9 2.5 33 7.5 N 7 13 4 7 1019.2 1019.1 0.0
19/03:00pm 18.0 14.7 2.4 35 7.1 ENE 9 13 5 7 1019.5 1019.4 0.0
19/02:30pm 17.6 14.4 3.0 37 6.7 E 9 17 5 9 1019.6 1019.5 0.0
19/02:00pm 17.8 14.5 2.7 36 6.9 SSE 9 15 5 8 1019.8 - 0.0
19/01:30pm 17.4 14.2 3.0 38 6.6 ESE 9 15 5 8 1020.1 1020.0 0.0
19/01:00pm 17.2 14.3 2.7 38 6.6 NNW 7 13 4 7 1020.7 - 0.0
19/12:30pm 16.8 14.0 3.0 39 6.3 SE 7 11 4 6 1021.2 1021.1 0.0
19/12:00pm 16.5 12.6 3.4 41 6.0 ESE 13 15 7 8 1021.9 1021.8 0.0
19/11:30am 17.2 14.4 3.3 39 6.4 N 7 11 4 6 1022.5 1022.4 0.0
19/11:00am 16.9 14.0 2.5 38 6.5 N 7 13 4 7 1022.9 - 0.0
19/10:30am 16.2 12.7 3.3 42 5.9 SSE 11 20 6 11 1023.1 1023.0 0.0
19/10:00am 15.8 13.1 3.8 44 5.5 E 7 11 4 6 1023.5 - 0.0
19/09:30am 14.9 12.6 5.9 55 4.3 NE 7 11 4 6 1023.8 1023.7 0.0
19/09:00am 13.6 12.1 7.0 64 3.2 E 4 7 2 4 1023.9 1023.8 0.2
19/08:30am 11.7 10.1 6.4 70 2.5 E 4 7 2 4 1023.8 1023.7 0.2
19/08:00am 9.9 9.1 6.7 80 1.5 CALM 0 0 0 0 1023.5 - 0.2
19/07:30am 7.2 6.3 6.1 93 0.5 CALM 0 0 0 0 1023.3 1023.2 0.2
19/07:00am 4.3 2.9 3.8 97 0.2 CALM 0 0 0 0 1022.9 - 0.2
19/06:30am 3.7 2.2 3.0 95 0.3 CALM 0 0 0 0 1022.6 1022.5 0.2
19/06:00am 3.9 2.4 3.2 95 0.3 CALM 0 0 0 0 1022.6 1022.5 0.2
19/05:30am 4.5 3.1 3.8 95 0.3 CALM 0 0 0 0 1022.6 1022.5 0.2
19/05:00am 4.8 2.3 3.8 93 0.4 SSE 6 7 3 4 1022.5 - 0.2
19/04:30am 5.1 3.1 4.4 95 0.3 SSE 4 7 2 4 1022.3 1022.2 0.2
19/04:00am 5.8 3.5 4.6 92 0.5 SSE 6 7 3 4 1022.3 - 0.2
19/03:30am 7.1 4.9 5.5 89 0.7 SSE 6 7 3 4 1022.3 1022.2 0.2
19/03:00am 7.9 4.8 5.7 86 1.0 S 11 13 6 7 1022.2 1022.1 0.2
19/02:30am 8.2 5.2 5.8 85 1.1 S 11 15 6 8 1022.4 1022.3 0.2
19/02:00am 8.7 5.7 5.8 82 1.3 S 11 15 6 8 1022.5 - 0.2
19/01:30am 9.0 6.0 5.9 81 1.4 S 11 17 6 9 1022.5 1022.4 0.2
19/01:00am 9.6 6.2 6.1 79 1.6 S 13 17 7 9 1022.6 - 0.2
19/12:30am 10.0 6.3 6.1 77 1.8 SSW 15 20 8 11 1022.6 1022.5 0.2
19/12:00am 10.7 7.7 6.2 74 2.1 S 11 19 6 10 1022.6 1022.5 0.2
 
Date/Time
CST
Temp
°C
App
Temp
°C
Dew
Point
Rel
Hum
%
Delta-T
°C
Wind Press
QNH
hPa
Press
MSL
hPa
Rain
since 9 am
mm
Dir
 
Spd
km/h
Gust
km/h
Spd
kts
Gust
kts
18/11:30pm 10.9 7.5 5.9 71 2.3 SSW 13 19 7 10 1022.6 1022.5 0.2
18/11:00pm 10.7 7.7 5.9 72 2.2 SSW 11 17 6 9 1022.7 - 0.2
18/10:30pm 10.4 7.3 5.6 72 2.2 SW 11 15 6 8 1022.9 1022.8 0.2
18/10:00pm 11.0 7.9 5.6 69 2.5 SW 11 15 6 8 1022.9 - 0.2
18/09:30pm 11.6 8.5 5.5 66 2.8 SW 11 15 6 8 1023.0 1022.9 0.2
18/09:00pm 12.1 9.0 5.4 63 3.1 SW 11 15 6 8 1022.7 1022.6 0.2
18/08:30pm 12.4 8.8 5.0 60 3.4 SW 13 15 7 8 1022.6 1022.5 0.2
18/08:00pm 13.3 10.0 4.8 56 3.9 SW 11 15 6 8 1022.5 - 0.2
18/07:30pm 14.2 10.5 4.4 51 4.5 SW 13 17 7 9 1022.3 1022.2 0.2
18/07:00pm 14.7 11.4 4.5 50 4.7 SW 11 15 6 8 1022.1 - 0.2
18/06:30pm 15.3 12.0 4.3 48 5.1 SW 11 15 6 8 1021.9 1021.8 0.2
18/06:00pm 16.7 12.4 3.4 41 6.1 SW 15 20 8 11 1021.5 1021.4 0.2
18/05:30pm 17.8 12.7 1.0 32 7.4 SSW 17 28 9 15 1021.1 1021.0 0.2
18/05:00pm 19.1 13.9 2.3 32 7.7 SSW 19 32 10 17 1020.7 - 0.2
18/04:30pm 20.1 14.7 2.7 31 8.1 SSW 20 30 11 16 1020.3 1020.2 0.2
18/04:00pm 20.5 14.8 2.7 30 8.3 SW 22 32 12 17 1020.1 - 0.2
18/03:30pm 20.9 15.0 4.1 33 8.1 SW 24 35 13 19 1019.8 1019.7 0.2
18/03:00pm 20.8 14.9 6.0 38 7.4 SW 26 43 14 23 1019.6 1019.5 0.2
18/02:30pm 20.7 16.2 8.5 45 6.4 SSW 22 37 12 20 1019.6 1019.5 0.2
18/02:00pm 19.6 16.0 10.5 55 4.9 SSW 20 35 11 19 1019.6 - 0.2
18/01:30pm 19.5 16.4 11.7 60 4.3 SSW 19 26 10 14 1019.6 1019.5 0.0
18/01:00pm 19.2 16.2 12.6 65 3.7 SSW 20 30 11 16 1019.8 - 0.0
18/12:30pm 19.7 16.2 10.9 57 4.8 SW 20 33 11 18 1020.0 1019.9 0.0
18/12:00pm 19.8 16.0 11.2 57 4.7 SW 22 33 12 18 1020.2 1020.1 0.0
18/11:30am 19.4 16.2 12.0 62 4.1 SW 20 32 11 17 1020.5 1020.4 0.0
18/11:00am 19.4 16.5 12.4 64 3.9 SW 19 30 10 16 1020.6 - 0.0
18/10:30am 17.4 12.8 13.5 78 2.2 SW 30 43 16 23 1020.9 1020.8 0.0
18/10:00am 19.4 15.5 12.0 62 4.1 WSW 24 35 13 19 1020.6 - 0.0
18/09:30am 19.5 16.2 11.5 60 4.4 WSW 20 32 11 17 1020.5 1020.4 0.0
18/09:00am 19.0 16.4 11.9 63 3.9 WSW 17 26 9 14 1020.4 1020.3 0.0
18/08:30am 17.3 15.1 12.2 72 2.8 WSW 15 20 8 11 1020.3 1020.2 0.0
18/08:00am 15.2 14.1 11.9 81 1.8 WNW 9 13 5 7 1020.1 - 0.0
18/07:30am 13.6 12.7 11.3 86 1.2 WNW 7 11 4 6 1019.9 1019.8 0.0
18/07:00am 12.3 11.4 11.2 93 0.6 WNW 7 9 4 5 1019.4 - 0.0
18/06:30am 12.3 11.3 11.0 92 0.7 WNW 7 9 4 5 1019.1 1019.0 0.0
18/06:00am 13.0 11.7 11.1 88 1.0 W 9 13 5 7 1019.0 1018.9 0.0
18/05:30am 12.5 11.6 11.4 93 0.6 WNW 7 11 4 6 1019.0 1018.9 0.0
18/05:00am 11.2 11.4 10.4 95 0.4 CALM 0 0 0 0 1018.7 - 0.0
18/04:30am 12.1 11.9 10.4 89 0.9 W 2 6 1 3 1018.5 1018.4 0.0
18/04:00am 13.9 12.9 11.1 83 1.5 W 7 9 4 5 1018.5 - 0.0
18/03:30am 13.5 12.6 11.4 87 1.1 W 7 9 4 5 1018.5 1018.4 0.0
18/03:00am 14.2 12.4 11.0 81 1.7 WNW 11 11 6 6 1018.4 1018.3 0.0
18/02:30am 14.3 13.0 11.1 81 1.7 NW 9 11 5 6 1018.3 1018.2 0.0
18/02:00am 14.3 13.0 11.1 81 1.7 WNW 9 9 5 5 1018.5 - 0.0
18/01:30am 14.4 12.7 11.2 81 1.7 WNW 11 11 6 6 1018.6 1018.5 0.0
18/01:00am 14.3 12.4 11.9 85 1.3 WNW 13 15 7 8 1018.8 - 0.0
18/12:30am 11.8 12.0 10.4 91 0.7 CALM 0 0 0 0 1018.7 1018.6 0.0
18/12:00am 11.6 11.7 10.2 91 0.7 CALM 0 0 0 0 1018.9 1018.8 0.0
 
Date/Time
CST
Temp
°C
App
Temp
°C
Dew
Point
Rel
Hum
%
Delta-T
°C
Wind Press
QNH
hPa
Press
MSL
hPa
Rain
since 9 am
mm
Dir
 
Spd
km/h
Gust
km/h
Spd
kts
Gust
kts
17/11:30pm 11.8 12.1 10.8 94 0.5 CALM 0 0 0 0 1019.1 1019.0 0.0
17/11:00pm 12.2 12.6 11.1 93 0.6 CALM 0 0 0 0 1019.4 - 0.0

Other Formats:

Comma delimited format used in spreadsheet applications
http://www.bom.gov.au/fwo/IDS60801/IDS60801.94682.axf

JavaScript Object Notation format (JSON) in row-major order
http://www.bom.gov.au/fwo/IDS60801/IDS60801.94682.json